createdAt,value
2018-09-05T00:00:12.428Z,19.80
2018-09-05T00:02:40.609Z,19.70
2018-09-05T00:05:09.250Z,19.60
2018-09-05T00:07:37.641Z,19.60
2018-09-05T00:10:05.818Z,19.60
2018-09-05T00:12:33.978Z,19.50
2018-09-05T00:15:02.158Z,19.50
2018-09-05T00:17:30.369Z,19.50
2018-09-05T00:19:58.566Z,19.50
2018-09-05T00:22:26.981Z,19.50
2018-09-05T00:24:55.119Z,19.40
2018-09-05T00:27:23.338Z,19.40
2018-09-05T00:29:51.626Z,19.40
2018-09-05T00:32:19.791Z,19.30
2018-09-05T00:34:47.968Z,19.30
2018-09-05T00:37:16.153Z,19.30
2018-09-05T00:39:44.333Z,19.30
2018-09-05T00:42:12.530Z,19.30
2018-09-05T00:44:40.709Z,19.30
2018-09-05T00:47:08.918Z,19.30
2018-09-05T00:49:37.088Z,19.20
2018-09-05T00:52:05.283Z,19.20
2018-09-05T00:54:33.459Z,19.10
2018-09-05T00:57:01.655Z,19.10
2018-09-05T00:59:29.848Z,19.10
2018-09-05T01:01:58.025Z,19.00
2018-09-05T01:04:26.234Z,19.00
2018-09-05T01:06:54.438Z,18.90
2018-09-05T01:09:22.584Z,18.90
2018-09-05T01:11:50.791Z,18.90
2018-09-05T01:14:18.955Z,18.90
2018-09-05T01:16:47.150Z,18.90
2018-09-05T01:19:15.333Z,18.80
2018-09-05T01:21:43.521Z,18.80
2018-09-05T01:24:11.709Z,18.80
2018-09-05T01:26:39.893Z,18.80
2018-09-05T01:29:08.078Z,18.70
2018-09-05T01:31:36.274Z,18.70
2018-09-05T01:34:04.450Z,18.70
2018-09-05T01:36:32.554Z,18.70
2018-09-05T01:39:00.726Z,18.70
2018-09-05T01:41:28.917Z,18.70
2018-09-05T01:43:57.099Z,18.70
2018-09-05T01:46:25.298Z,18.70
2018-09-05T01:48:53.490Z,18.70
2018-09-05T01:51:21.718Z,18.60
2018-09-05T01:53:49.843Z,18.50
2018-09-05T01:56:18.038Z,18.50
2018-09-05T01:58:46.226Z,18.40
2018-09-05T02:01:14.424Z,18.40
2018-09-05T02:03:42.613Z,18.30
2018-09-05T02:06:10.781Z,18.30
2018-09-05T02:08:38.986Z,18.30
2018-09-05T02:11:07.158Z,18.30
2018-09-05T02:13:35.361Z,18.30
2018-09-05T02:16:03.534Z,18.20
2018-09-05T02:18:31.745Z,18.10
2018-09-05T02:20:59.917Z,18.10
2018-09-05T02:23:28.106Z,18.10
2018-09-05T02:25:56.283Z,18.00
2018-09-05T02:28:24.481Z,18.00
2018-09-05T02:30:53.482Z,18.00
2018-09-05T02:33:21.683Z,18.00
2018-09-05T02:35:49.850Z,18.00
2018-09-05T02:38:18.054Z,18.00
2018-09-05T02:40:46.270Z,18.00
2018-09-05T02:43:18.658Z,18.00
2018-09-05T02:45:46.749Z,18.00
2018-09-05T02:48:14.890Z,18.00
2018-09-05T02:50:43.073Z,18.00
2018-09-05T02:53:11.262Z,18.00
2018-09-05T02:55:44.737Z,18.00
2018-09-05T02:58:12.865Z,17.90
2018-09-05T03:00:41.043Z,17.90
2018-09-05T03:03:09.278Z,17.90
2018-09-05T03:05:37.451Z,17.90
2018-09-05T03:08:05.609Z,17.90
2018-09-05T03:10:33.778Z,17.90
2018-09-05T03:13:01.881Z,17.90
2018-09-05T03:15:30.074Z,17.90
2018-09-05T03:17:58.251Z,17.90
2018-09-05T03:20:26.430Z,17.90
2018-09-05T03:22:54.622Z,17.90
2018-09-05T03:25:22.821Z,17.90
2018-09-05T03:27:51.002Z,17.90
2018-09-05T03:30:19.176Z,17.90
2018-09-05T03:32:47.411Z,17.90
2018-09-05T03:35:15.806Z,17.90
2018-09-05T03:37:43.946Z,17.90
2018-09-05T03:40:12.150Z,17.90
2018-09-05T03:42:40.329Z,17.90
2018-09-05T03:45:08.506Z,17.80
2018-09-05T03:47:36.693Z,17.80
2018-09-05T03:50:05.669Z,17.80
2018-09-05T03:52:33.785Z,17.80
2018-09-05T03:55:01.958Z,17.80
2018-09-05T03:57:30.206Z,17.70
2018-09-05T03:59:58.342Z,17.70
2018-09-05T04:02:26.529Z,17.70
2018-09-05T04:04:54.757Z,17.70
2018-09-05T04:07:22.923Z,17.60
2018-09-05T04:09:51.130Z,17.60
2018-09-05T04:12:19.227Z,17.60
2018-09-05T04:14:47.367Z,17.50
2018-09-05T04:17:15.579Z,17.50
2018-09-05T04:19:43.746Z,17.40
2018-09-05T04:22:11.981Z,17.50
2018-09-05T04:24:40.253Z,17.40
2018-09-05T04:27:08.398Z,17.40
2018-09-05T04:29:36.677Z,17.30
2018-09-05T04:32:04.765Z,17.30
2018-09-05T04:34:32.987Z,17.30
2018-09-05T04:37:01.145Z,17.30
2018-09-05T04:39:29.378Z,17.30
2018-09-05T04:41:57.561Z,17.20
2018-09-05T04:44:25.801Z,17.20
2018-09-05T04:46:53.907Z,17.10
2018-09-05T04:49:22.094Z,17.20
2018-09-05T04:51:50.268Z,17.10
2018-09-05T04:54:18.521Z,17.10
2018-09-05T04:56:46.642Z,17.10
2018-09-05T04:59:14.845Z,17.10
2018-09-05T05:01:43.011Z,17.00
2018-09-05T05:04:11.215Z,17.00
2018-09-05T05:06:39.418Z,17.00
2018-09-05T05:09:09.849Z,17.00
2018-09-05T05:11:38.293Z,17.00
2018-09-05T05:14:06.413Z,16.90
2018-09-05T05:16:34.726Z,17.00
2018-09-05T05:19:02.898Z,16.90
2018-09-05T05:21:31.078Z,16.90
2018-09-05T05:23:59.314Z,16.90
2018-09-05T05:26:27.453Z,16.90
2018-09-05T05:28:55.701Z,16.90
2018-09-05T05:31:23.806Z,16.90
2018-09-05T05:33:52.022Z,17.00
2018-09-05T05:36:20.229Z,17.00
2018-09-05T05:38:48.383Z,17.00
2018-09-05T05:41:16.573Z,17.00
2018-09-05T05:43:44.766Z,17.00
2018-09-05T05:46:12.934Z,17.10
2018-09-05T05:48:41.146Z,17.10
2018-09-05T05:51:09.313Z,17.10
2018-09-05T05:53:37.521Z,17.10
2018-09-05T05:56:05.765Z,17.20
2018-09-05T05:58:33.918Z,17.20
2018-09-05T06:01:02.160Z,17.20
2018-09-05T06:03:30.253Z,17.30
2018-09-05T06:05:58.647Z,17.30
2018-09-05T06:08:26.730Z,17.30
2018-09-05T06:10:54.881Z,17.40
2018-09-05T06:13:23.024Z,17.40
2018-09-05T06:15:51.192Z,17.50
2018-09-05T06:18:19.366Z,17.50
2018-09-05T06:20:47.566Z,17.60
2018-09-05T06:23:15.746Z,17.60
2018-09-05T06:25:43.933Z,17.70
2018-09-05T06:28:12.122Z,17.70
2018-09-05T06:30:40.466Z,17.80
2018-09-05T06:33:08.498Z,17.80
2018-09-05T06:35:36.695Z,17.80
2018-09-05T06:38:04.869Z,17.90
2018-09-05T06:40:33.062Z,17.90
2018-09-05T06:43:01.238Z,18.00
2018-09-05T06:45:29.487Z,18.10
2018-09-05T06:47:57.606Z,18.10
2018-09-05T06:50:25.818Z,18.20
2018-09-05T06:52:53.996Z,18.30
2018-09-05T06:55:22.183Z,18.30
2018-09-05T06:57:50.582Z,18.40
2018-09-05T07:00:18.982Z,18.50
2018-09-05T07:02:47.279Z,18.60
2018-09-05T07:05:15.602Z,18.60
2018-09-05T07:07:43.719Z,18.70
2018-09-05T07:10:11.823Z,18.80
2018-09-05T07:12:39.996Z,18.80
2018-09-05T07:15:08.201Z,18.90
2018-09-05T07:17:36.445Z,19.00
2018-09-05T07:20:04.573Z,19.10
2018-09-05T07:22:32.745Z,19.20
2018-09-05T07:25:00.991Z,19.30
2018-09-05T07:27:29.175Z,19.30
2018-09-05T07:29:57.294Z,19.40
2018-09-05T07:32:25.474Z,19.50
2018-09-05T07:34:53.674Z,19.60
2018-09-05T07:37:21.847Z,19.70
2018-09-05T07:39:50.025Z,19.80
2018-09-05T07:42:18.122Z,19.90
2018-09-05T07:44:46.295Z,19.90
2018-09-05T07:47:14.394Z,20.00
2018-09-05T07:49:42.578Z,20.10
2018-09-05T07:52:10.779Z,20.20
2018-09-05T07:55:17.057Z,20.30
2018-09-05T07:57:45.235Z,20.40
2018-09-05T08:00:13.432Z,20.40
2018-09-05T08:02:41.651Z,20.50
2018-09-05T08:05:09.798Z,20.60
2018-09-05T08:07:37.990Z,20.70
2018-09-05T08:10:06.154Z,20.80
2018-09-05T08:12:34.266Z,20.90
2018-09-05T08:15:02.350Z,21.00
2018-09-05T08:17:30.530Z,21.10
2018-09-05T08:19:58.716Z,21.20
2018-09-05T08:22:26.906Z,21.20
2018-09-05T08:24:55.206Z,21.40
2018-09-05T08:27:24.026Z,21.50
2018-09-05T08:29:53.164Z,21.60
2018-09-05T08:32:21.524Z,21.70
2018-09-05T08:34:49.813Z,21.80
2018-09-05T08:37:18.084Z,21.90
2018-09-05T08:39:46.173Z,22.00
2018-09-05T08:42:14.370Z,22.20
2018-09-05T08:44:42.713Z,22.30
2018-09-05T08:47:10.779Z,22.50
2018-09-05T08:49:38.918Z,22.60
2018-09-05T08:52:07.086Z,22.70
2018-09-05T08:54:35.307Z,22.80
2018-09-05T08:57:03.473Z,22.90
2018-09-05T08:59:31.663Z,23.10
2018-09-05T09:01:59.838Z,23.20
2018-09-05T09:04:28.068Z,23.40
2018-09-05T09:06:56.270Z,23.50
2018-09-05T09:09:24.426Z,23.50
2018-09-05T09:11:52.595Z,23.60
2018-09-05T09:14:20.766Z,23.70
2018-09-05T09:16:48.962Z,23.90
2018-09-05T09:19:17.133Z,24.00
2018-09-05T09:21:45.369Z,24.10
2018-09-05T09:24:13.511Z,24.20
2018-09-05T09:26:41.602Z,24.40
2018-09-05T09:29:09.777Z,24.50
2018-09-05T09:31:37.865Z,24.70
2018-09-05T09:34:06.058Z,24.90
2018-09-05T09:36:34.249Z,25.10
2018-09-05T09:39:02.464Z,25.30
2018-09-05T09:41:30.632Z,25.50
2018-09-05T09:43:58.703Z,25.70
2018-09-05T09:46:26.912Z,25.80
2018-09-05T09:48:55.278Z,25.90
2018-09-05T09:51:23.480Z,26.10
2018-09-05T09:53:52.609Z,26.20
2018-09-05T09:56:21.034Z,26.50
2018-09-05T09:58:49.157Z,26.70
2018-09-05T10:01:22.586Z,26.80
2018-09-05T10:03:56.370Z,27.00
2018-09-05T10:06:30.105Z,27.20
2018-09-05T10:09:03.676Z,27.40
2018-09-05T10:11:37.334Z,27.60
2018-09-05T10:14:11.289Z,27.80
2018-09-05T10:16:44.640Z,28.00
2018-09-05T10:19:13.078Z,28.20
2018-09-05T10:21:41.184Z,28.40
2018-09-05T10:24:09.341Z,28.60
2018-09-05T10:26:37.531Z,28.70
2018-09-05T10:29:05.714Z,28.80
2018-09-05T10:31:33.917Z,28.90
2018-09-05T10:34:02.082Z,29.00
2018-09-05T10:36:30.274Z,29.10
2018-09-05T10:38:58.469Z,29.30
2018-09-05T10:41:26.665Z,29.50
2018-09-05T10:43:55.324Z,29.80
2018-09-05T10:46:23.438Z,30.00
2018-09-05T10:48:51.622Z,30.20
2018-09-05T10:51:24.049Z,30.50
2018-09-05T10:53:52.207Z,30.70
2018-09-05T10:56:20.379Z,30.80
2018-09-05T10:58:48.570Z,30.90
2018-09-05T11:01:16.744Z,31.10
2018-09-05T11:03:44.947Z,31.30
2018-09-05T11:06:13.122Z,31.40
2018-09-05T11:08:41.318Z,31.50
2018-09-05T11:11:09.507Z,31.70
2018-09-05T11:13:37.702Z,31.90
2018-09-05T11:16:05.871Z,32.00
2018-09-05T11:18:34.065Z,32.20
2018-09-05T11:21:02.241Z,32.20
2018-09-05T11:23:30.449Z,32.40
2018-09-05T11:25:58.632Z,32.60
2018-09-05T11:28:26.801Z,32.40
2018-09-05T11:30:55.009Z,31.80
2018-09-05T11:33:23.169Z,31.70
2018-09-05T11:35:51.345Z,31.90
2018-09-05T11:38:19.540Z,32.10
2018-09-05T11:40:47.622Z,32.10
2018-09-05T11:43:15.829Z,31.80
2018-09-05T11:45:43.995Z,31.80
2018-09-05T11:48:12.186Z,32.10
2018-09-05T11:50:40.365Z,31.90
2018-09-05T11:53:08.566Z,31.90
2018-09-05T11:55:36.749Z,31.90
2018-09-05T11:58:04.946Z,32.10
2018-09-05T12:00:33.166Z,32.40
2018-09-05T12:03:01.309Z,32.60
2018-09-05T12:05:29.557Z,33.00
2018-09-05T12:07:57.694Z,33.30
2018-09-05T12:10:25.902Z,33.60
2018-09-05T12:12:54.049Z,33.90
2018-09-05T12:15:22.149Z,33.80
2018-09-05T12:17:50.333Z,33.90
2018-09-05T12:20:18.528Z,33.90
2018-09-05T12:22:46.706Z,34.20
2018-09-05T12:25:14.894Z,34.30
2018-09-05T12:27:43.066Z,34.40
2018-09-05T12:30:11.265Z,34.50
2018-09-05T12:32:39.438Z,34.70
2018-09-05T12:35:07.534Z,34.70
2018-09-05T12:37:35.721Z,34.40
2018-09-05T12:40:03.910Z,33.70
2018-09-05T12:42:32.088Z,32.70
2018-09-05T12:45:00.279Z,32.00
2018-09-05T12:47:28.471Z,31.60
2018-09-05T12:49:56.866Z,31.40
2018-09-05T12:52:25.030Z,31.10
2018-09-05T12:54:53.129Z,30.90
2018-09-05T12:57:21.306Z,31.40
2018-09-05T12:59:49.639Z,32.00
2018-09-05T13:02:17.819Z,32.60
2018-09-05T13:04:45.978Z,33.20
2018-09-05T13:07:14.153Z,33.60
2018-09-05T13:09:42.246Z,33.90
2018-09-05T13:12:10.438Z,34.10
2018-09-05T13:14:38.648Z,34.20
2018-09-05T13:17:06.746Z,34.40
2018-09-05T13:19:34.921Z,34.60
2018-09-05T13:22:03.066Z,34.80
2018-09-05T13:24:31.379Z,34.80
2018-09-05T13:26:59.483Z,34.90
2018-09-05T13:29:27.654Z,34.60
2018-09-05T13:31:55.837Z,33.80
2018-09-05T13:34:24.026Z,33.60
2018-09-05T13:36:52.109Z,33.70
2018-09-05T13:39:20.301Z,33.80
2018-09-05T13:41:48.470Z,33.30
2018-09-05T13:44:16.666Z,33.00
2018-09-05T13:46:44.766Z,33.30
2018-09-05T13:49:12.943Z,33.60
2018-09-05T13:51:41.134Z,33.90
2018-09-05T13:54:09.318Z,34.10
2018-09-05T13:56:37.423Z,34.10
2018-09-05T13:59:05.591Z,34.10
2018-09-05T14:01:33.773Z,34.40
2018-09-05T14:04:01.962Z,34.60
2018-09-05T14:06:30.146Z,34.60
2018-09-05T14:08:58.362Z,34.70
2018-09-05T14:11:26.518Z,34.90
2018-09-05T14:13:54.710Z,35.10
2018-09-05T14:16:22.798Z,35.10
2018-09-05T14:18:51.038Z,35.10
2018-09-05T14:21:19.122Z,35.00
2018-09-05T14:23:47.474Z,35.10
2018-09-05T14:26:15.648Z,35.10
2018-09-05T14:28:44.734Z,35.10
2018-09-05T14:31:12.918Z,35.20
2018-09-05T14:33:41.098Z,35.20
2018-09-05T14:36:09.185Z,35.30
2018-09-05T14:38:37.269Z,35.20
2018-09-05T14:41:05.370Z,34.80
2018-09-05T14:43:33.473Z,34.40
2018-09-05T14:46:01.665Z,34.40
2018-09-05T14:48:29.867Z,34.40
2018-09-05T14:50:57.912Z,34.60
2018-09-05T14:53:26.426Z,34.70
2018-09-05T14:55:54.582Z,34.50
2018-09-05T14:58:22.779Z,34.40
2018-09-05T15:00:50.964Z,34.50
2018-09-05T15:03:19.147Z,34.50
2018-09-05T15:05:47.364Z,34.50
2018-09-05T15:08:15.530Z,34.30
2018-09-05T15:10:43.731Z,34.50
2018-09-05T15:13:11.902Z,34.70
2018-09-05T15:15:40.101Z,34.70
2018-09-05T15:18:08.267Z,34.70
2018-09-05T15:20:36.477Z,34.80
2018-09-05T15:23:04.677Z,34.80
2018-09-05T15:25:32.853Z,34.90
2018-09-05T15:28:01.023Z,35.00
2018-09-05T15:30:29.222Z,34.90
2018-09-05T15:32:57.401Z,34.90
2018-09-05T15:35:25.590Z,34.80
2018-09-05T15:37:53.766Z,34.80
2018-09-05T15:40:21.974Z,34.70
2018-09-05T15:42:50.072Z,34.70
2018-09-05T15:45:18.242Z,34.70
2018-09-05T15:47:46.473Z,34.70
2018-09-05T15:50:14.617Z,34.70
2018-09-05T15:52:42.799Z,34.60
2018-09-05T15:55:13.558Z,34.50
2018-09-05T15:57:42.466Z,34.40
2018-09-05T16:00:10.646Z,34.30
2018-09-05T16:02:38.813Z,34.20
2018-09-05T16:05:07.234Z,34.10
2018-09-05T16:07:35.406Z,34.00
2018-09-05T16:10:03.599Z,33.70
2018-09-05T16:12:31.766Z,33.40
2018-09-05T16:15:00.090Z,33.30
2018-09-05T16:17:28.245Z,33.10
2018-09-05T16:19:56.533Z,33.00
2018-09-05T16:22:24.789Z,32.70
2018-09-05T16:24:52.917Z,32.60
2018-09-05T16:27:21.094Z,32.30
2018-09-05T16:29:49.387Z,32.30
2018-09-05T16:32:17.513Z,32.20
2018-09-05T16:34:45.655Z,32.20
2018-09-05T16:37:13.853Z,32.10
2018-09-05T16:39:42.041Z,32.00
2018-09-05T16:42:10.218Z,31.90
2018-09-05T16:44:38.410Z,31.80
2018-09-05T16:47:06.624Z,31.60
2018-09-05T16:49:34.783Z,31.30
2018-09-05T16:52:02.969Z,31.10
2018-09-05T16:54:31.160Z,30.90
2018-09-05T16:56:59.342Z,30.70
2018-09-05T16:59:27.430Z,30.50
2018-09-05T17:01:55.617Z,30.30
2018-09-05T17:04:23.799Z,30.20
2018-09-05T17:06:51.982Z,30.00
2018-09-05T17:09:20.174Z,29.70
2018-09-05T17:11:48.363Z,29.60
2018-09-05T17:14:16.578Z,29.40
2018-09-05T17:16:44.738Z,29.30
2018-09-05T17:19:12.918Z,29.10
2018-09-05T17:21:41.109Z,29.00
2018-09-05T17:24:09.282Z,28.80
2018-09-05T17:26:37.482Z,28.60
2018-09-05T17:29:06.094Z,28.50
2018-09-05T17:31:34.347Z,28.40
2018-09-05T17:34:02.914Z,28.20
2018-09-05T17:36:31.061Z,28.10
2018-09-05T17:38:59.222Z,28.00
2018-09-05T17:41:27.434Z,27.80
2018-09-05T17:43:55.634Z,27.70
2018-09-05T17:46:23.797Z,27.60
2018-09-05T17:48:51.974Z,27.50
2018-09-05T17:51:20.169Z,27.40
2018-09-05T17:53:48.274Z,27.20
2018-09-05T17:56:16.482Z,27.10
2018-09-05T17:58:44.629Z,27.00
2018-09-05T18:01:15.905Z,26.90
2018-09-05T18:03:44.092Z,26.70
2018-09-05T18:06:12.262Z,26.60
2018-09-05T18:08:40.451Z,26.50
2018-09-05T18:11:08.639Z,26.40
2018-09-05T18:13:36.818Z,26.20
2018-09-05T18:16:05.008Z,26.10
2018-09-05T18:18:33.218Z,26.00
2018-09-05T18:21:01.430Z,25.90
2018-09-05T18:23:29.559Z,25.80
2018-09-05T18:25:57.887Z,25.70
2018-09-05T18:28:26.030Z,25.60
2018-09-05T18:30:54.230Z,25.50
2018-09-05T18:33:22.399Z,25.40
2018-09-05T18:35:50.482Z,25.30
2018-09-05T18:38:18.718Z,25.20
2018-09-05T18:40:46.754Z,25.20
2018-09-05T18:43:14.960Z,25.00
2018-09-05T18:45:43.122Z,25.00
2018-09-05T18:48:11.231Z,24.90
2018-09-05T18:50:39.414Z,24.80
2018-09-05T18:53:11.822Z,24.70
2018-09-05T18:55:41.237Z,24.70
2018-09-05T18:58:09.398Z,24.60
2018-09-05T19:00:37.877Z,24.50
2018-09-05T19:03:06.822Z,24.40
2018-09-05T19:05:34.979Z,24.30
2018-09-05T19:08:03.186Z,24.30
2018-09-05T19:10:31.458Z,24.20
2018-09-05T19:12:59.630Z,24.10
2018-09-05T19:15:27.741Z,24.00
2018-09-05T19:17:56.047Z,23.90
2018-09-05T19:20:24.209Z,23.80
2018-09-05T19:22:52.492Z,23.80
2018-09-05T19:25:20.586Z,23.70
2018-09-05T19:27:48.906Z,23.70
2018-09-05T19:30:17.087Z,23.70
2018-09-05T19:32:45.233Z,23.60
2018-09-05T19:35:13.445Z,23.60
2018-09-05T19:37:41.614Z,23.50
2018-09-05T19:40:09.782Z,23.50
2018-09-05T19:42:38.118Z,23.40
2018-09-05T19:45:06.714Z,23.40
2018-09-05T19:47:34.892Z,23.30
2018-09-05T19:50:03.357Z,23.20
2018-09-05T19:52:31.551Z,23.20
2018-09-05T19:54:59.738Z,23.10
2018-09-05T19:57:27.954Z,23.00
2018-09-05T19:59:56.170Z,23.00
2018-09-05T20:02:24.443Z,22.90
2018-09-05T20:04:52.817Z,22.90
2018-09-05T20:07:20.989Z,22.90
2018-09-05T20:09:49.344Z,22.80
2018-09-05T20:12:17.518Z,22.70
2018-09-05T20:14:45.634Z,22.60
2018-09-05T20:17:13.727Z,22.60
2018-09-05T20:19:41.909Z,22.50
2018-09-05T20:22:10.957Z,22.40
2018-09-05T20:24:39.241Z,22.40
2018-09-05T20:27:07.858Z,22.30
2018-09-05T20:29:36.155Z,22.20
2018-09-05T20:32:04.338Z,22.20
2018-09-05T20:34:32.508Z,22.10
2018-09-05T20:37:00.693Z,22.10
2018-09-05T20:39:28.850Z,22.00
2018-09-05T20:41:57.038Z,21.90
2018-09-05T20:44:25.301Z,21.90
2018-09-05T20:46:53.414Z,21.90
2018-09-05T20:56:20.619Z,21.70
2018-09-05T20:58:48.860Z,21.50
2018-09-05T21:01:16.965Z,21.50
2018-09-05T21:03:45.127Z,21.40
2018-09-05T21:06:13.331Z,21.40
2018-09-05T21:08:42.620Z,21.30
2018-09-05T21:11:10.710Z,21.30
2018-09-05T21:13:38.902Z,21.20
2018-09-05T21:16:07.090Z,21.10
2018-09-05T21:18:35.266Z,21.10
2018-09-05T21:21:03.482Z,21.00
2018-09-05T21:23:32.389Z,21.00
2018-09-05T21:26:00.769Z,21.00
2018-09-05T21:28:28.938Z,20.90
2018-09-05T21:30:57.109Z,20.80
2018-09-05T21:33:25.850Z,20.80
2018-09-05T21:35:54.130Z,20.80
2018-09-05T21:38:22.286Z,20.80
2018-09-05T21:40:50.490Z,20.70
2018-09-05T21:43:18.666Z,20.70
2018-09-05T21:45:46.850Z,20.70
2018-09-05T21:48:15.088Z,20.70
2018-09-05T21:50:43.206Z,20.60
2018-09-05T21:53:11.297Z,20.60
2018-09-05T21:55:39.394Z,20.60
2018-09-05T21:58:07.568Z,20.60
2018-09-05T22:00:35.682Z,20.60
2018-09-05T22:03:03.854Z,20.60
2018-09-05T22:05:32.049Z,20.50
2018-09-05T22:08:00.217Z,20.50
2018-09-05T22:10:28.399Z,20.40
2018-09-05T22:12:56.497Z,20.40
2018-09-05T22:15:25.146Z,20.40
2018-09-05T22:17:53.235Z,20.30
2018-09-05T22:20:21.369Z,20.30
2018-09-05T22:22:49.543Z,20.30
2018-09-05T22:25:17.742Z,20.20
2018-09-05T22:27:45.918Z,20.20
2018-09-05T22:30:14.118Z,20.20
2018-09-05T22:32:42.304Z,20.10
2018-09-05T22:35:10.502Z,20.10
2018-09-05T22:37:38.665Z,20.10
2018-09-05T22:40:06.873Z,20.00
2018-09-05T22:42:36.449Z,20.00
2018-09-05T22:45:16.150Z,19.90
2018-09-05T22:48:57.519Z,19.90
2018-09-05T22:52:48.286Z,19.80
2018-09-05T22:55:33.767Z,19.70
2018-09-05T22:58:17.505Z,19.60
2018-09-05T23:00:57.419Z,19.60
2018-09-05T23:03:37.739Z,19.60
2018-09-05T23:06:22.932Z,19.50
2018-09-05T23:08:51.035Z,19.40
2018-09-05T23:11:57.455Z,19.40
2018-09-05T23:14:37.723Z,19.40
2018-09-05T23:17:17.794Z,19.40
2018-09-05T23:20:10.144Z,19.30
2018-09-05T23:22:49.647Z,19.30
2018-09-05T23:25:17.875Z,19.20
2018-09-05T23:27:46.051Z,19.20
2018-09-05T23:30:14.244Z,19.20
2018-09-05T23:32:42.423Z,19.20
2018-09-05T23:35:10.614Z,19.20
2018-09-05T23:37:38.835Z,19.10
2018-09-05T23:40:07.009Z,19.00
2018-09-05T23:42:35.167Z,19.10
2018-09-05T23:45:03.370Z,19.00
2018-09-05T23:47:31.564Z,19.00
2018-09-05T23:49:59.731Z,19.00
2018-09-05T23:52:27.927Z,19.00
2018-09-05T23:54:56.107Z,18.90
2018-09-05T23:57:24.294Z,18.90
2018-09-05T23:59:52.481Z,18.90
